sensor_id;sensor_type;location;lat;lon;timestamp;pressure;altitude;pressure_sealevel;temperature
74915;BMP280;63475;45.140;-75.616;2022-12-26T00:00:06;99505.78;;;-4.42
74915;BMP280;63475;45.140;-75.616;2022-12-26T00:01:11;99475.09;;;-4.64
74915;BMP280;63475;45.140;-75.616;2022-12-26T00:02:12;99518.38;;;-4.40
74915;BMP280;63475;45.140;-75.616;2022-12-26T00:03:13;99508.53;;;-4.47
74915;BMP280;63475;45.140;-75.616;2022-12-26T00:04:15;99519.88;;;-4.39
74915;BMP280;63475;45.140;-75.616;2022-12-26T00:05:17;99505.09;;;-4.51
74915;BMP280;63475;45.140;-75.616;2022-12-26T00:06:20;99520.75;;;-4.35
74915;BMP280;63475;45.140;-75.616;2022-12-26T00:07:21;99521.41;;;-4.38
74915;BMP280;63475;45.140;-75.616;2022-12-26T00:08:22;99519.13;;;-4.40
74915;BMP280;63475;45.140;-75.616;2022-12-26T00:09:23;99495.16;;;-4.61
74915;BMP280;63475;45.140;-75.616;2022-12-26T00:10:24;99517.38;;;-4.48
74915;BMP280;63475;45.140;-75.616;2022-12-26T00:11:25;99529.34;;;-4.43
74915;BMP280;63475;45.140;-75.616;2022-12-26T00:12:26;99526.44;;;-4.42
74915;BMP280;63475;45.140;-75.616;2022-12-26T00:13:27;99494.69;;;-4.63
74915;BMP280;63475;45.140;-75.616;2022-12-26T00:14:28;99530.09;;;-4.43
74915;BMP280;63475;45.140;-75.616;2022-12-26T00:15:29;99528.41;;;-4.39
74915;BMP280;63475;45.140;-75.616;2022-12-26T00:16:30;99536.47;;;-4.40
74915;BMP280;63475;45.140;-75.616;2022-12-26T00:17:31;99521.03;;;-4.49
74915;BMP280;63475;45.140;-75.616;2022-12-26T00:18:32;99532.22;;;-4.45
74915;BMP280;63475;45.140;-75.616;2022-12-26T00:19:33;99516.69;;;-4.57
74915;BMP280;63475;45.140;-75.616;2022-12-26T00:20:34;99528.59;;;-4.44
74915;BMP280;63475;45.140;-75.616;2022-12-26T00:21:35;99537.78;;;-4.34
74915;BMP280;63475;45.140;-75.616;2022-12-26T00:22:36;99528.59;;;-4.44
74915;BMP280;63475;45.140;-75.616;2022-12-26T00:23:37;99529.47;;;-4.40
74915;BMP280;63475;45.140;-75.616;2022-12-26T00:24:38;99525.31;;;-4.53
74915;BMP280;63475;45.140;-75.616;2022-12-26T00:25:39;99542.31;;;-4.52
74915;BMP280;63475;45.140;-75.616;2022-12-26T00:26:40;99530.69;;;-4.58
74915;BMP280;63475;45.140;-75.616;2022-12-26T00:27:41;99539.75;;;-4.52
74915;BMP280;63475;45.140;-75.616;2022-12-26T00:28:42;99536.09;;;-4.51
74915;BMP280;63475;45.140;-75.616;2022-12-26T00:29:43;99543.53;;;-4.49
74915;BMP280;63475;45.140;-75.616;2022-12-26T00:30:44;99549.75;;;-4.50
74915;BMP280;63475;45.140;-75.616;2022-12-26T00:31:45;99549.75;;;-4.50
74915;BMP280;63475;45.140;-75.616;2022-12-26T00:32:46;99518.94;;;-4.76
74915;BMP280;63475;45.140;-75.616;2022-12-26T00:33:47;99547.50;;;-4.52
74915;BMP280;63475;45.140;-75.616;2022-12-26T00:34:48;99505.28;;;-4.77
74915;BMP280;63475;45.140;-75.616;2022-12-26T00:35:49;99550.50;;;-4.50
74915;BMP280;63475;45.140;-75.616;2022-12-26T00:36:50;99542.31;;;-4.52
74915;BMP280;63475;45.140;-75.616;2022-12-26T00:37:51;99551.16;;;-4.53
74915;BMP280;63475;45.140;-75.616;2022-12-26T00:38:52;99537.34;;;-4.57
74915;BMP280;63475;45.140;-75.616;2022-12-26T00:39:53;99551.16;;;-4.53
74915;BMP280;63475;45.140;-75.616;2022-12-26T00:40:54;99554.59;;;-4.49
74915;BMP280;63475;45.140;-75.616;2022-12-26T00:41:55;99555.69;;;-4.50
74915;BMP280;63475;45.140;-75.616;2022-12-26T00:42:56;99559.34;;;-4.51
74915;BMP280;63475;45.140;-75.616;2022-12-26T00:43:57;99559.97;;;-4.54
74915;BMP280;63475;45.140;-75.616;2022-12-26T00:44:58;99541.72;;;-4.70
74915;BMP280;63475;45.140;-75.616;2022-12-26T00:45:59;99549.84;;;-4.59
74915;BMP280;63475;45.140;-75.616;2022-12-26T00:47:03;99560.53;;;-4.48
74915;BMP280;63475;45.140;-75.616;2022-12-26T00:48:04;99540.00;;;-4.66
74915;BMP280;63475;45.140;-75.616;2022-12-26T00:49:05;99557.94;;;-4.48
74915;BMP280;63475;45.140;-75.616;2022-12-26T00:50:06;99530.19;;;-4.72
74915;BMP280;63475;45.140;-75.616;2022-12-26T00:51:07;99561.50;;;-4.53
74915;BMP280;63475;45.140;-75.616;2022-12-26T00:52:08;99528.97;;;-4.75
74915;BMP280;63475;45.140;-75.616;2022-12-26T00:53:09;99555.44;;;-4.57
74915;BMP280;63475;45.140;-75.616;2022-12-26T00:54:10;99561.50;;;-4.53
74915;BMP280;63475;45.140;-75.616;2022-12-26T00:55:11;99571.19;;;-4.50
74915;BMP280;63475;45.140;-75.616;2022-12-26T00:56:12;99537.94;;;-4.72
74915;BMP280;63475;45.140;-75.616;2022-12-26T00:57:13;99543.84;;;-4.72
74915;BMP280;63475;45.140;-75.616;2022-12-26T00:58:14;99559.59;;;-4.65
74915;BMP280;63475;45.140;-75.616;2022-12-26T00:59:15;99574.09;;;-4.51
74915;BMP280;63475;45.140;-75.616;2022-12-26T01:00:16;99455.41;;;-5.31
74915;BMP280;63475;45.140;-75.616;2022-12-26T01:01:21;99559.75;;;-4.61
74915;BMP280;63475;45.140;-75.616;2022-12-26T01:02:22;99572.56;;;-4.52
74915;BMP280;63475;45.140;-75.616;2022-12-26T01:03:38;99547.38;;;-4.55
74915;BMP280;63475;45.140;-75.616;2022-12-26T01:04:39;99569.94;;;-4.44
74915;BMP280;63475;45.140;-75.616;2022-12-26T01:05:48;99577.09;;;-4.49
74915;BMP280;63475;45.140;-75.616;2022-12-26T01:06:49;99577.09;;;-4.49
74915;BMP280;63475;45.140;-75.616;2022-12-26T01:07:50;99581.41;;;-4.53
74915;BMP280;63475;45.140;-75.616;2022-12-26T01:08:52;99570.50;;;-4.59
74915;BMP280;63475;45.140;-75.616;2022-12-26T01:09:53;99581.28;;;-4.57
74915;BMP280;63475;45.140;-75.616;2022-12-26T01:10:54;99581.84;;;-4.72
74915;BMP280;63475;45.140;-75.616;2022-12-26T01:11:55;99583.91;;;-4.66
74915;BMP280;63475;45.140;-75.616;2022-12-26T01:12:56;99588.94;;;-4.69
74915;BMP280;63475;45.140;-75.616;2022-12-26T01:13:57;99585.41;;;-4.85
74915;BMP280;63475;45.140;-75.616;2022-12-26T01:14:58;99594.00;;;-4.73
74915;BMP280;63475;45.140;-75.616;2022-12-26T01:15:59;99592.28;;;-4.69
74915;BMP280;63475;45.140;-75.616;2022-12-26T01:17:00;99564.00;;;-4.86
74915;BMP280;63475;45.140;-75.616;2022-12-26T01:18:01;99599.09;;;-4.64
74915;BMP280;63475;45.140;-75.616;2022-12-26T01:19:03;99586.81;;;-4.67
74915;BMP280;63475;45.140;-75.616;2022-12-26T01:20:04;99588.94;;;-4.69
74915;BMP280;63475;45.140;-75.616;2022-12-26T01:21:10;99566.63;;;-4.95
74915;BMP280;63475;45.140;-75.616;2022-12-26T01:22:11;99587.16;;;-4.77
74915;BMP280;63475;45.140;-75.616;2022-12-26T01:23:12;99581.13;;;-4.81
74915;BMP280;63475;45.140;-75.616;2022-12-26T01:24:13;99586.53;;;-4.74
74915;BMP280;63475;45.140;-75.616;2022-12-26T01:25:14;99589.59;;;-4.72
74915;BMP280;63475;45.140;-75.616;2022-12-26T01:26:15;99589.28;;;-4.71
74915;BMP280;63475;45.140;-75.616;2022-12-26T01:27:16;99600.34;;;-4.70
74915;BMP280;63475;45.140;-75.616;2022-12-26T01:28:20;99568.72;;;-4.88
74915;BMP280;63475;45.140;-75.616;2022-12-26T01:29:21;99594.88;;;-4.69
74915;BMP280;63475;45.140;-75.616;2022-12-26T01:30:21;99580.44;;;-4.91
74915;BMP280;63475;45.140;-75.616;2022-12-26T01:31:23;99598.53;;;-4.70
74915;BMP280;63475;45.140;-75.616;2022-12-26T01:32:24;99603.09;;;-4.75
74915;BMP280;63475;45.140;-75.616;2022-12-26T01:33:25;99595.41;;;-4.84
74915;BMP280;63475;45.140;-75.616;2022-12-26T01:34:25;99604.31;;;-4.73
74915;BMP280;63475;45.140;-75.616;2022-12-26T01:35:26;99608.84;;;-4.70
74915;BMP280;63475;45.140;-75.616;2022-12-26T01:36:27;99599.75;;;-4.76
74915;BMP280;63475;45.140;-75.616;2022-12-26T01:37:28;99612.19;;;-4.69
74915;BMP280;63475;45.140;-75.616;2022-12-26T01:38:29;99599.00;;;-4.76
74915;BMP280;63475;45.140;-75.616;2022-12-26T01:39:30;99578.31;;;-4.97
74915;BMP280;63475;45.140;-75.616;2022-12-26T01:40:31;99605.69;;;-4.75
74915;BMP280;63475;45.140;-75.616;2022-12-26T01:41:32;99613.91;;;-4.73
74915;BMP280;63475;45.140;-75.616;2022-12-26T01:42:38;99592.72;;;-4.88
74915;BMP280;63475;45.140;-75.616;2022-12-26T01:43:49;99615.75;;;-4.82
74915;BMP280;63475;45.140;-75.616;2022-12-26T01:45:30;99613.69;;;-4.89
74915;BMP280;63475;45.140;-75.616;2022-12-26T01:46:39;99612.44;;;-4.83
74915;BMP280;63475;45.140;-75.616;2022-12-26T01:47:48;99630.91;;;-4.72
74915;BMP280;63475;45.140;-75.616;2022-12-26T01:48:50;99627.84;;;-4.74
74915;BMP280;63475;45.140;-75.616;2022-12-26T01:49:53;99615.44;;;-4.81
74915;BMP280;63475;45.140;-75.616;2022-12-26T01:50:57;99629.25;;;-4.77
74915;BMP280;63475;45.140;-75.616;2022-12-26T01:52:03;99612.75;;;-4.84
74915;BMP280;63475;45.140;-75.616;2022-12-26T01:53:23;99630.44;;;-4.74
74915;BMP280;63475;45.140;-75.616;2022-12-26T01:54:27;99636.06;;;-4.72
74915;BMP280;63475;45.140;-75.616;2022-12-26T01:55:31;99636.06;;;-4.72
74915;BMP280;63475;45.140;-75.616;2022-12-26T01:56:36;99636.50;;;-4.70
74915;BMP280;63475;45.140;-75.616;2022-12-26T01:57:42;99637.91;;;-4.73
74915;BMP280;63475;45.140;-75.616;2022-12-26T01:58:48;99643.34;;;-4.74
74915;BMP280;63475;45.140;-75.616;2022-12-26T01:59:51;99642.88;;;-4.68
74915;BMP280;63475;45.140;-75.616;2022-12-26T02:00:53;99625.47;;;-4.79
74915;BMP280;63475;45.140;-75.616;2022-12-26T02:01:54;99634.81;;;-4.66
74915;BMP280;63475;45.140;-75.616;2022-12-26T02:02:55;99619.50;;;-4.71
74915;BMP280;63475;45.140;-75.616;2022-12-26T02:04:21;99644.78;;;-4.56
74915;BMP280;63475;45.140;-75.616;2022-12-26T02:05:41;99642.66;;;-4.54
74915;BMP280;63475;45.140;-75.616;2022-12-26T02:06:42;99615.41;;;-4.72
74915;BMP280;63475;45.140;-75.616;2022-12-26T02:07:44;99640.38;;;-4.55
74915;BMP280;63475;45.140;-75.616;2022-12-26T02:08:46;99640.50;;;-4.52
74915;BMP280;63475;45.140;-75.616;2022-12-26T02:09:47;99618.41;;;-4.62
74915;BMP280;63475;45.140;-75.616;2022-12-26T02:10:58;99638.38;;;-4.50
74915;BMP280;63475;45.140;-75.616;2022-12-26T02:12:28;99633.06;;;-4.53
74915;BMP280;63475;45.140;-75.616;2022-12-26T02:13:30;99636.28;;;-4.57
74915;BMP280;63475;45.140;-75.616;2022-12-26T02:14:33;99650.97;;;-4.48
74915;BMP280;63475;45.140;-75.616;2022-12-26T02:15:35;99643.41;;;-4.53
74915;BMP280;63475;45.140;-75.616;2022-12-26T02:16:37;99639.50;;;-4.60
74915;BMP280;63475;45.140;-75.616;2022-12-26T02:17:41;99658.28;;;-4.50
74915;BMP280;63475;45.140;-75.616;2022-12-26T02:18:43;99655.06;;;-4.47
74915;BMP280;63475;45.140;-75.616;2022-12-26T02:19:54;99657.31;;;-4.46
74915;BMP280;63475;45.140;-75.616;2022-12-26T02:24:06;99666.91;;;-4.46
74915;BMP280;63475;45.140;-75.616;2022-12-26T02:27:52;99667.53;;;-4.49
74915;BMP280;63475;45.140;-75.616;2022-12-26T02:30:25;99677.88;;;-4.49
74915;BMP280;63475;45.140;-75.616;2022-12-26T02:35:36;99690.34;;;-4.51
74915;BMP280;63475;45.140;-75.616;2022-12-26T02:38:10;99690.66;;;-4.53
74915;BMP280;63475;45.140;-75.616;2022-12-26T02:42:35;99697.78;;;-4.50
74915;BMP280;63475;45.140;-75.616;2022-12-26T02:44:07;99686.25;;;-4.52
74915;BMP280;63475;45.140;-75.616;2022-12-26T02:52:00;99703.25;;;-4.51
74915;BMP280;63475;45.140;-75.616;2022-12-26T02:55:15;99712.59;;;-4.59
74915;BMP280;63475;45.140;-75.616;2022-12-26T02:56:42;99690.75;;;-4.70
74915;BMP280;63475;45.140;-75.616;2022-12-26T02:58:29;99716.81;;;-4.54
74915;BMP280;63475;45.140;-75.616;2022-12-26T03:00:15;99720.78;;;-4.57
74915;BMP280;63475;45.140;-75.616;2022-12-26T03:01:43;99724.59;;;-4.63
74915;BMP280;63475;45.140;-75.616;2022-12-26T03:03:13;99723.56;;;-4.62
74915;BMP280;63475;45.140;-75.616;2022-12-26T03:04:35;99724.78;;;-4.68
74915;BMP280;63475;45.140;-75.616;2022-12-26T03:06:22;99704.25;;;-4.65
74915;BMP280;63475;45.140;-75.616;2022-12-26T03:07:43;99709.28;;;-4.68
74915;BMP280;63475;45.140;-75.616;2022-12-26T03:09:06;99732.53;;;-4.68
74915;BMP280;63475;45.140;-75.616;2022-12-26T03:10:32;99703.06;;;-4.76
74915;BMP280;63475;45.140;-75.616;2022-12-26T03:12:04;99731.75;;;-4.60
74915;BMP280;63475;45.140;-75.616;2022-12-26T03:13:30;99741.75;;;-4.59
74915;BMP280;63475;45.140;-75.616;2022-12-26T03:14:43;99732.31;;;-4.54
74915;BMP280;63475;45.140;-75.616;2022-12-26T03:15:55;99708.09;;;-4.79
74915;BMP280;63475;45.140;-75.616;2022-12-26T03:17:40;99733.06;;;-4.54
74915;BMP280;63475;45.140;-75.616;2022-12-26T03:18:45;99746.97;;;-4.67
74915;BMP280;63475;45.140;-75.616;2022-12-26T03:20:10;99745.88;;;-4.66
74915;BMP280;63475;45.140;-75.616;2022-12-26T03:21:13;99711.00;;;-4.81
74915;BMP280;63475;45.140;-75.616;2022-12-26T03:22:15;99749.66;;;-4.55
74915;BMP280;63475;45.140;-75.616;2022-12-26T03:23:30;99746.06;;;-4.71
74915;BMP280;63475;45.140;-75.616;2022-12-26T03:24:32;99750.91;;;-4.61
74915;BMP280;63475;45.140;-75.616;2022-12-26T03:26:05;99753.81;;;-4.71
74915;BMP280;63475;45.140;-75.616;2022-12-26T03:27:25;99744.69;;;-4.69
74915;BMP280;63475;45.140;-75.616;2022-12-26T03:28:26;99759.84;;;-4.59
74915;BMP280;63475;45.140;-75.616;2022-12-26T03:29:27;99757.41;;;-4.55
74915;BMP280;63475;45.140;-75.616;2022-12-26T03:30:47;99765.03;;;-4.67
74915;BMP280;63475;45.140;-75.616;2022-12-26T03:31:51;99770.66;;;-4.65
74915;BMP280;63475;45.140;-75.616;2022-12-26T03:32:55;99767.31;;;-4.66
74915;BMP280;63475;45.140;-75.616;2022-12-26T03:34:06;99762.31;;;-4.71
74915;BMP280;63475;45.140;-75.616;2022-12-26T03:35:19;99770.97;;;-4.75
74915;BMP280;63475;45.140;-75.616;2022-12-26T03:37:52;99751.69;;;-4.78
74915;BMP280;63475;45.140;-75.616;2022-12-26T03:44:35;99778.31;;;-4.48
74915;BMP280;63475;45.140;-75.616;2022-12-26T03:46:31;99775.22;;;-4.62
74915;BMP280;63475;45.140;-75.616;2022-12-26T03:49:52;99791.47;;;-4.62
74915;BMP280;63475;45.140;-75.616;2022-12-26T03:51:20;99781.97;;;-4.49
74915;BMP280;63475;45.140;-75.616;2022-12-26T03:52:47;99787.47;;;-4.50
74915;BMP280;63475;45.140;-75.616;2022-12-26T03:54:24;99797.03;;;-4.51
74915;BMP280;63475;45.140;-75.616;2022-12-26T03:57:42;99798.88;;;-4.51
74915;BMP280;63475;45.140;-75.616;2022-12-26T03:59:19;99797.03;;;-4.42
74915;BMP280;63475;45.140;-75.616;2022-12-26T04:00:41;99805.16;;;-4.32
74915;BMP280;63475;45.140;-75.616;2022-12-26T04:02:04;99810.19;;;-4.27
74915;BMP280;63475;45.140;-75.616;2022-12-26T04:03:25;99798.09;;;-4.43
74915;BMP280;63475;45.140;-75.616;2022-12-26T04:04:46;99782.59;;;-4.52
74915;BMP280;63475;45.140;-75.616;2022-12-26T04:06:13;99825.56;;;-4.39
74915;BMP280;63475;45.140;-75.616;2022-12-26T04:07:39;99832.75;;;-4.44
74915;BMP280;63475;45.140;-75.616;2022-12-26T04:09:11;99844.16;;;-4.54
74915;BMP280;63475;45.140;-75.616;2022-12-26T04:10:39;99842.09;;;-4.78
74915;BMP280;63475;45.140;-75.616;2022-12-26T04:12:01;99819.97;;;-5.13
74915;BMP280;63475;45.140;-75.616;2022-12-26T04:13:29;99828.19;;;-5.20
74915;BMP280;63475;45.140;-75.616;2022-12-26T04:14:58;99857.63;;;-5.12
74915;BMP280;63475;45.140;-75.616;2022-12-26T04:18:02;99850.63;;;-5.29
74915;BMP280;63475;45.140;-75.616;2022-12-26T04:22:29;99867.19;;;-5.22
74915;BMP280;63475;45.140;-75.616;2022-12-26T04:23:50;99872.94;;;-5.25
74915;BMP280;63475;45.140;-75.616;2022-12-26T04:25:16;99868.06;;;-5.35
74915;BMP280;63475;45.140;-75.616;2022-12-26T04:26:41;99853.63;;;-5.53
74915;BMP280;63475;45.140;-75.616;2022-12-26T04:28:01;99867.78;;;-5.42
74915;BMP280;63475;45.140;-75.616;2022-12-26T04:29:20;99879.16;;;-5.34
74915;BMP280;63475;45.140;-75.616;2022-12-26T04:30:41;99881.88;;;-5.39
74915;BMP280;63475;45.140;-75.616;2022-12-26T04:32:12;99879.47;;;-5.44
74915;BMP280;63475;45.140;-75.616;2022-12-26T04:33:40;99883.84;;;-5.45
74915;BMP280;63475;45.140;-75.616;2022-12-26T04:35:16;99888.22;;;-5.54
74915;BMP280;63475;45.140;-75.616;2022-12-26T04:36:41;99902.94;;;-5.55
74915;BMP280;63475;45.140;-75.616;2022-12-26T04:38:03;99889.59;;;-5.57
74915;BMP280;63475;45.140;-75.616;2022-12-26T04:39:25;99897.34;;;-5.57
74915;BMP280;63475;45.140;-75.616;2022-12-26T04:40:50;99887.09;;;-5.70
74915;BMP280;63475;45.140;-75.616;2022-12-26T04:42:12;99868.56;;;-5.90
74915;BMP280;63475;45.140;-75.616;2022-12-26T04:43:33;99898.19;;;-5.70
74915;BMP280;63475;45.140;-75.616;2022-12-26T04:44:54;99839.81;;;-6.14
74915;BMP280;63475;45.140;-75.616;2022-12-26T04:46:04;99897.28;;;-5.74
74915;BMP280;63475;45.140;-75.616;2022-12-26T04:47:06;99908.50;;;-5.79
74915;BMP280;63475;45.140;-75.616;2022-12-26T04:48:07;99874.88;;;-6.04
74915;BMP280;63475;45.140;-75.616;2022-12-26T04:49:28;99907.88;;;-5.84
74915;BMP280;63475;45.140;-75.616;2022-12-26T04:50:52;99901.00;;;-5.89
74915;BMP280;63475;45.140;-75.616;2022-12-26T04:51:57;99909.50;;;-5.88
74915;BMP280;63475;45.140;-75.616;2022-12-26T04:52:58;99904.66;;;-5.90
74915;BMP280;63475;45.140;-75.616;2022-12-26T04:53:59;99904.66;;;-5.90
74915;BMP280;63475;45.140;-75.616;2022-12-26T04:55:00;99903.72;;;-5.94
74915;BMP280;63475;45.140;-75.616;2022-12-26T04:56:01;99890.78;;;-6.02
74915;BMP280;63475;45.140;-75.616;2022-12-26T04:57:03;99905.53;;;-5.94
74915;BMP280;63475;45.140;-75.616;2022-12-26T04:58:04;99905.84;;;-5.96
74915;BMP280;63475;45.140;-75.616;2022-12-26T04:59:05;99892.25;;;-6.10
74915;BMP280;63475;45.140;-75.616;2022-12-26T05:00:07;99911.00;;;-5.96
74915;BMP280;63475;45.140;-75.616;2022-12-26T05:01:08;99912.38;;;-5.98
74915;BMP280;63475;45.140;-75.616;2022-12-26T05:02:27;99920.22;;;-6.03
74915;BMP280;63475;45.140;-75.616;2022-12-26T05:03:46;99882.53;;;-6.22
74915;BMP280;63475;45.140;-75.616;2022-12-26T05:05:07;99895.41;;;-6.22
74915;BMP280;63475;45.140;-75.616;2022-12-26T05:06:27;99879.97;;;-6.22
74915;BMP280;63475;45.140;-75.616;2022-12-26T05:07:46;99910.28;;;-6.19
74915;BMP280;63475;45.140;-75.616;2022-12-26T05:09:10;99895.72;;;-6.23
74915;BMP280;63475;45.140;-75.616;2022-12-26T05:10:32;99912.69;;;-6.22
74915;BMP280;63475;45.140;-75.616;2022-12-26T05:11:34;99916.50;;;-6.20
74915;BMP280;63475;45.140;-75.616;2022-12-26T05:12:35;99916.66;;;-6.16
74915;BMP280;63475;45.140;-75.616;2022-12-26T05:13:36;99900.56;;;-6.22
74915;BMP280;63475;45.140;-75.616;2022-12-26T05:14:36;99912.13;;;-6.11
74915;BMP280;63475;45.140;-75.616;2022-12-26T05:15:37;99912.88;;;-6.10
74915;BMP280;63475;45.140;-75.616;2022-12-26T05:16:58;99917.56;;;-6.12
74915;BMP280;63475;45.140;-75.616;2022-12-26T05:18:17;99919.41;;;-6.13
74915;BMP280;63475;45.140;-75.616;2022-12-26T05:19:36;99895.34;;;-6.30
74915;BMP280;63475;45.140;-75.616;2022-12-26T05:20:57;99911.66;;;-6.13
74915;BMP280;63475;45.140;-75.616;2022-12-26T05:22:19;99922.59;;;-6.07
74915;BMP280;63475;45.140;-75.616;2022-12-26T05:23:39;99905.06;;;-6.27
74915;BMP280;63475;45.140;-75.616;2022-12-26T05:24:58;99920.72;;;-6.24
74915;BMP280;63475;45.140;-75.616;2022-12-26T05:26:21;99914.97;;;-6.21
74915;BMP280;63475;45.140;-75.616;2022-12-26T05:27:42;99932.56;;;-6.14
74915;BMP280;63475;45.140;-75.616;2022-12-26T05:29:02;99934.53;;;-6.20
74915;BMP280;63475;45.140;-75.616;2022-12-26T05:30:05;99931.94;;;-6.20
74915;BMP280;63475;45.140;-75.616;2022-12-26T05:31:14;99920.22;;;-6.26
74915;BMP280;63475;45.140;-75.616;2022-12-26T05:32:15;99934.53;;;-6.20
74915;BMP280;63475;45.140;-75.616;2022-12-26T05:33:35;99927.97;;;-6.26
74915;BMP280;63475;45.140;-75.616;2022-12-26T05:34:57;99928.91;;;-6.22
74915;BMP280;63475;45.140;-75.616;2022-12-26T05:35:58;99940.22;;;-6.31
74915;BMP280;63475;45.140;-75.616;2022-12-26T05:36:59;99920.59;;;-6.41
74915;BMP280;63475;45.140;-75.616;2022-12-26T05:38:01;99942.72;;;-6.40
74915;BMP280;63475;45.140;-75.616;2022-12-26T05:39:03;99921.72;;;-6.56
74915;BMP280;63475;45.140;-75.616;2022-12-26T05:40:05;99943.16;;;-6.24
74915;BMP280;63475;45.140;-75.616;2022-12-26T05:41:06;99943.47;;;-6.17
74915;BMP280;63475;45.140;-75.616;2022-12-26T05:42:06;99936.13;;;-6.32
74915;BMP280;63475;45.140;-75.616;2022-12-26T05:43:07;99947.03;;;-6.36
74915;BMP280;63475;45.140;-75.616;2022-12-26T05:44:09;99940.84;;;-6.48
74915;BMP280;63475;45.140;-75.616;2022-12-26T05:45:10;99911.75;;;-6.71
74915;BMP280;63475;45.140;-75.616;2022-12-26T05:46:11;99937.94;;;-6.55
74915;BMP280;63475;45.140;-75.616;2022-12-26T05:47:12;99945.19;;;-6.57
74915;BMP280;63475;45.140;-75.616;2022-12-26T05:48:13;99943.19;;;-6.60
74915;BMP280;63475;45.140;-75.616;2022-12-26T05:49:14;99945.09;;;-6.44
74915;BMP280;63475;45.140;-75.616;2022-12-26T05:50:15;99956.06;;;-6.38
74915;BMP280;63475;45.140;-75.616;2022-12-26T05:51:16;99951.16;;;-6.48
74915;BMP280;63475;45.140;-75.616;2022-12-26T05:52:17;99954.84;;;-6.41
74915;BMP280;63475;45.140;-75.616;2022-12-26T05:53:18;99940.25;;;-6.45
74915;BMP280;63475;45.140;-75.616;2022-12-26T05:54:19;99960.06;;;-6.32
74915;BMP280;63475;45.140;-75.616;2022-12-26T05:55:20;99952.03;;;-6.30
74915;BMP280;63475;45.140;-75.616;2022-12-26T05:56:21;99942.91;;;-6.37
74915;BMP280;63475;45.140;-75.616;2022-12-26T05:57:22;99965.75;;;-6.21
74915;BMP280;63475;45.140;-75.616;2022-12-26T05:58:23;99965.44;;;-6.20
74915;BMP280;63475;45.140;-75.616;2022-12-26T05:59:24;99964.47;;;-6.32
74915;BMP280;63475;45.140;-75.616;2022-12-26T06:00:26;99950.69;;;-6.50
74915;BMP280;63475;45.140;-75.616;2022-12-26T06:01:28;99960.56;;;-6.44
74915;BMP280;63475;45.140;-75.616;2022-12-26T06:02:29;99954.81;;;-6.63
74915;BMP280;63475;45.140;-75.616;2022-12-26T06:03:30;99960.69;;;-6.49
74915;BMP280;63475;45.140;-75.616;2022-12-26T06:04:31;99968.72;;;-6.50
74915;BMP280;63475;45.140;-75.616;2022-12-26T06:05:34;99964.84;;;-6.39
74915;BMP280;63475;45.140;-75.616;2022-12-26T06:06:35;99964.47;;;-6.32
74915;BMP280;63475;45.140;-75.616;2022-12-26T06:07:36;99949.88;;;-6.37
74915;BMP280;63475;45.140;-75.616;2022-12-26T06:08:37;99972.13;;;-6.19
74915;BMP280;63475;45.140;-75.616;2022-12-26T06:09:38;99977.75;;;-6.17
74915;BMP280;63475;45.140;-75.616;2022-12-26T06:10:39;99962.72;;;-6.23
74915;BMP280;63475;45.140;-75.616;2022-12-26T06:11:40;99969.41;;;-6.14
74915;BMP280;63475;45.140;-75.616;2022-12-26T06:12:41;99969.28;;;-6.09
74915;BMP280;63475;45.140;-75.616;2022-12-26T06:13:42;99967.44;;;-6.17
74915;BMP280;63475;45.140;-75.616;2022-12-26T06:14:43;99949.75;;;-6.32
74915;BMP280;63475;45.140;-75.616;2022-12-26T06:15:44;99984.28;;;-6.11
74915;BMP280;63475;45.140;-75.616;2022-12-26T06:16:45;99956.03;;;-6.24
74915;BMP280;63475;45.140;-75.616;2022-12-26T06:17:46;99984.59;;;-6.12
74915;BMP280;63475;45.140;-75.616;2022-12-26T06:18:47;99994.84;;;-5.98
74915;BMP280;63475;45.140;-75.616;2022-12-26T06:19:49;99993.34;;;-5.99
74915;BMP280;63475;45.140;-75.616;2022-12-26T06:20:50;99969.56;;;-6.19
74915;BMP280;63475;45.140;-75.616;2022-12-26T06:21:51;99969.09;;;-6.21
74915;BMP280;63475;45.140;-75.616;2022-12-26T06:22:52;99990.75;;;-5.99
74915;BMP280;63475;45.140;-75.616;2022-12-26T06:23:53;99990.50;;;-6.12
74915;BMP280;63475;45.140;-75.616;2022-12-26T06:24:54;100000.81;;;-6.12
74915;BMP280;63475;45.140;-75.616;2022-12-26T06:25:55;99988.38;;;-6.10
74915;BMP280;63475;45.140;-75.616;2022-12-26T06:26:56;99993.38;;;-6.13
74915;BMP280;63475;45.140;-75.616;2022-12-26T06:27:57;99995.31;;;-6.19
74915;BMP280;63475;45.140;-75.616;2022-12-26T06:28:58;99938.63;;;-6.63
74915;BMP280;63475;45.140;-75.616;2022-12-26T06:29:59;99993.50;;;-6.18
74915;BMP280;63475;45.140;-75.616;2022-12-26T06:31:18;99999.88;;;-6.16
74915;BMP280;63475;45.140;-75.616;2022-12-26T06:32:20;99998.69;;;-6.10
74915;BMP280;63475;45.140;-75.616;2022-12-26T06:33:21;99985.78;;;-6.18
74915;BMP280;63475;45.140;-75.616;2022-12-26T06:34:22;100006.31;;;-6.04
74915;BMP280;63475;45.140;-75.616;2022-12-26T06:35:23;99990.63;;;-6.17
74915;BMP280;63475;45.140;-75.616;2022-12-26T06:36:25;100011.47;;;-6.04
74915;BMP280;63475;45.140;-75.616;2022-12-26T06:37:26;100005.56;;;-6.05
74915;BMP280;63475;45.140;-75.616;2022-12-26T06:38:28;100010.22;;;-6.07
74915;BMP280;63475;45.140;-75.616;2022-12-26T06:39:29;100016.63;;;-6.04
74915;BMP280;63475;45.140;-75.616;2022-12-26T06:40:29;100013.47;;;-6.01
74915;BMP280;63475;45.140;-75.616;2022-12-26T06:41:30;100015.56;;;-6.03
74915;BMP280;63475;45.140;-75.616;2022-12-26T06:42:31;100013.59;;;-6.07
74915;BMP280;63475;45.140;-75.616;2022-12-26T06:43:32;100012.75;;;-6.16
74915;BMP280;63475;45.140;-75.616;2022-12-26T06:44:33;99991.56;;;-6.35
74915;BMP280;63475;45.140;-75.616;2022-12-26T06:45:34;100030.66;;;-6.11
74915;BMP280;63475;45.140;-75.616;2022-12-26T06:46:35;100030.66;;;-6.11
74915;BMP280;63475;45.140;-75.616;2022-12-26T06:47:36;100036.41;;;-6.14
74915;BMP280;63475;45.140;-75.616;2022-12-26T06:48:37;99993.19;;;-6.39
74915;BMP280;63475;45.140;-75.616;2022-12-26T06:49:41;100028.81;;;-6.19
74915;BMP280;63475;45.140;-75.616;2022-12-26T06:50:42;100040.97;;;-6.11
74915;BMP280;63475;45.140;-75.616;2022-12-26T06:51:43;100044.38;;;-6.01
74915;BMP280;63475;45.140;-75.616;2022-12-26T06:52:46;100036.66;;;-6.01
74915;BMP280;63475;45.140;-75.616;2022-12-26T06:53:49;100031.91;;;-6.08
74915;BMP280;63475;45.140;-75.616;2022-12-26T06:54:50;100038.97;;;-6.00
74915;BMP280;63475;45.140;-75.616;2022-12-26T06:55:51;100045.34;;;-5.97
74915;BMP280;63475;45.140;-75.616;2022-12-26T06:56:52;100028.69;;;-6.14
74915;BMP280;63475;45.140;-75.616;2022-12-26T06:57:53;100055.66;;;-5.97
74915;BMP280;63475;45.140;-75.616;2022-12-26T06:59:01;100064.91;;;-5.96
74915;BMP280;63475;45.140;-75.616;2022-12-26T07:00:03;100043.09;;;-6.13